North Platte Regional Airport Lee Bird Field
KLBF : now visible

Airfield :











YOU CAN JOIN US ON...

 
LOGIN :

Register | Disclaimer

   EN    FR    IT 

 









Legend :    VFR   Marginal VFR   IFR   Intensive IFR   Very Intensive IFR
Visi :
Ceiling :
>= 8 km
>= 3000ft
5 to 8 km
1000 to 3000 ft
1500m to 5 km
500 to 1000 ft
800 to 1500m
200 to 500 ft
< 800m
< 200 ft
Symbols :   Thunderstorms  Fog  Heavy snow  Heavy precipitations  Wind > 20 kt







- Airport Elevation : 2777 ft
- IATA code : LBF


KLBF - North Platte Regional Lee Bird Field

CURRENT METAR :
  • 160553Z AUTO 19009KT 10SM CLR 23/14 A2997 RMK AO2 SLP116 T02280139 10289 20194 403330094 58004 $

EXPIRED METARs :
  • 160453Z AUTO 18007KT 10SM CLR 22/14 A2998 RMK AO2 SLP122 T02220139 $
  • 160353Z AUTO 13008KT 10SM CLR 21/17 A2998 RMK AO2 SLP128 T02110167 $

TAF KLBF
Valid from the 16 at 06:00 until the 17 at 06:00 UTC


160520Z 1606/1706 15008KT P6SM BKN250 WS015/20040KT
FM161300 16007KT P6SM SCT250
FM161500 17011G18KT P6SM SCT250
FM161800 18018G25KT P6SM BKN250
FM170100 16013KT P6SM BKN250
No reported NOTAMs for that airfield.



MET'MAP, your aeronautical weather chart ! - Copyright ORBIFLY December 2007 - Disclaimer

ORBIFLY MET'MAP TEAM :

Programming & Development : Alexandra Zaïnal
Concept & Development : Baudouin d'Aumeries
Co-Development & Prog : Marc-Olivier Méhu
Technical & hardware support : Manuel Goepfert

Contact : metmap@orbifly.com




SOURCES & CREDITS :

   NOAA       Earth
Advisory